Time;durP1;ratioP1;P1;durP2;ratioP2;P2;SDS_P1;SDS_P2;PMS_P1;PMS_P2;Temp;Humidity;BMP_temperature;BMP_pressure;BME280_temperature;BME280_humidity;BME280_pressure;Samples;Min_cycle;Max_cycle;Signal;HPM_P1;HPM_P2
2023/03/24 00:00:22;;;;;;;8.45;3.33;;;11.30;99.90;;;;;;5071397;28;20766;-75
2023/03/24 00:02:50;;;;;;;8.70;3.25;;;11.20;99.90;;;;;;5070353;28;20615;-75
2023/03/24 00:05:21;;;;;;;8.43;3.53;;;11.10;99.90;;;;;;5070697;28;20425;-75
2023/03/24 00:07:49;;;;;;;10.13;3.40;;;11.10;99.90;;;;;;5074210;28;20444;-75
2023/03/24 00:10:19;;;;;;;7.90;3.50;;;11.10;99.90;;;;;;5067099;28;20941;-75
2023/03/24 00:12:47;;;;;;;10.18;3.78;;;11.00;99.90;;;;;;5070360;28;20508;-75
2023/03/24 00:15:20;;;;;;;10.75;3.50;;;11.00;99.90;;;;;;5102232;27;20464;-75
2023/03/24 00:17:51;;;;;;;8.93;3.63;;;11.00;99.90;;;;;;5074853;28;20494;-75
2023/03/24 00:20:21;;;;;;;9.85;3.65;;;11.00;99.90;;;;;;5074785;28;20449;-75
2023/03/24 00:22:57;;;;;;;9.77;3.75;;;11.00;99.90;;;;;;5091290;28;20508;-75
2023/03/24 00:25:36;;;;;;;10.03;3.80;;;11.00;99.90;;;;;;5073328;28;20597;-75
2023/03/24 00:28:06;;;;;;;7.60;3.67;;;11.00;99.90;;;;;;5077910;28;20778;-75
2023/03/24 00:30:33;;;;;;;9.18;3.67;;;11.00;99.90;;;;;;5085430;28;20416;-75
2023/03/24 00:33:00;;;;;;;8.02;3.42;;;11.00;99.90;;;;;;5078807;28;20793;-75
2023/03/24 00:35:27;;;;;;;11.10;4.10;;;11.00;99.90;;;;;;5071459;28;20407;-75
2023/03/24 00:37:54;;;;;;;8.30;3.30;;;11.00;99.90;;;;;;5059564;28;20408;-75
2023/03/24 00:40:21;;;;;;;12.68;4.00;;;11.00;99.90;;;;;;5075330;28;20400;-75
2023/03/24 00:42:49;;;;;;;7.45;3.10;;;10.90;99.90;;;;;;5092053;28;21122;-75
2023/03/24 00:45:24;;;;;;;8.27;3.50;;;10.90;99.90;;;;;;5071863;28;20410;-75
2023/03/24 00:47:56;;;;;;;8.48;3.85;;;11.00;99.90;;;;;;5078165;28;20420;-75
2023/03/24 00:50:25;;;;;;;7.53;3.20;;;11.00;99.90;;;;;;5074882;28;20802;-75
2023/03/24 00:52:52;;;;;;;11.52;3.35;;;10.90;99.90;;;;;;5059623;28;20506;-75
2023/03/24 00:55:20;;;;;;;8.73;3.28;;;10.90;99.90;;;;;;5076813;28;20404;-75
2023/03/24 00:57:49;;;;;;;10.05;3.28;;;10.80;99.90;;;;;;5082222;28;20402;-74
2023/03/24 01:00:26;;;;;;;8.48;3.33;;;10.80;99.90;;;;;;5083132;28;20459;-74
2023/03/24 01:02:56;;;;;;;9.00;3.42;;;10.90;99.90;;;;;;5071322;28;20500;-75
2023/03/24 01:05:29;;;;;;;9.68;3.35;;;10.80;99.90;;;;;;5083598;28;20446;-75
2023/03/24 01:08:02;;;;;;;8.70;3.53;;;10.90;99.90;;;;;;5066142;28;20416;-75
2023/03/24 01:10:30;;;;;;;7.60;3.10;;;11.00;99.90;;;;;;5065497;28;20412;-75
2023/03/24 01:12:59;;;;;;;11.55;3.67;;;11.00;99.90;;;;;;5064785;28;20416;-75
2023/03/24 01:15:32;;;;;;;9.07;3.50;;;11.00;99.90;;;;;;5066159;28;20520;-75
2023/03/24 01:18:00;;;;;;;12.10;3.70;;;11.00;99.90;;;;;;5066567;28;21089;-75
2023/03/24 01:20:32;;;;;;;10.63;3.67;;;11.00;99.90;;;;;;5066213;28;20404;-74
2023/03/24 01:23:01;;;;;;;9.40;3.70;;;11.00;99.90;;;;;;5064841;28;20562;-75
2023/03/24 01:25:29;;;;;;;8.18;3.35;;;11.00;99.90;;;;;;5076290;28;20423;-75
2023/03/24 01:27:56;;;;;;;9.48;3.45;;;10.90;99.90;;;;;;5072812;28;20417;-76
2023/03/24 01:30:26;;;;;;;9.52;3.90;;;10.90;99.90;;;;;;5072458;28;20406;-75
2023/03/24 01:32:54;;;;;;;10.30;3.37;;;10.90;99.90;;;;;;5068243;28;20423;-76
2023/03/24 01:35:22;;;;;;;8.88;3.50;;;11.00;99.90;;;;;;5072435;28;20452;-76
2023/03/24 01:37:49;;;;;;;6.90;3.72;;;11.00;99.90;;;;;;5086666;27;20429;-75
2023/03/24 01:40:26;;;;;;;9.70;3.80;;;11.00;99.90;;;;;;5067268;28;21108;-77
2023/03/24 01:42:52;;;;;;;8.15;3.45;;;11.00;99.90;;;;;;5069828;28;20426;-76
2023/03/24 01:45:38;;;;;;;11.33;3.47;;;11.00;99.90;;;;;;5072784;28;20528;-75
2023/03/24 01:48:19;;;;;;;10.75;3.72;;;11.10;99.90;;;;;;5068049;28;20423;-76
2023/03/24 01:51:01;;;;;;;9.52;3.70;;;11.10;99.90;;;;;;5061114;28;20828;-76
2023/03/24 01:53:31;;;;;;;10.23;3.85;;;11.10;99.90;;;;;;5068099;28;20429;-76
2023/03/24 01:56:00;;;;;;;9.00;3.65;;;11.20;99.90;;;;;;5100471;27;20418;-76
2023/03/24 01:58:31;;;;;;;10.90;3.97;;;11.20;99.90;;;;;;5071532;28;20524;-76
2023/03/24 02:00:58;;;;;;;8.18;3.72;;;11.20;99.90;;;;;;5073157;28;20407;-76
2023/03/24 02:03:28;;;;;;;9.70;3.80;;;11.20;99.90;;;;;;5077701;28;20518;-76
2023/03/24 02:06:01;;;;;;;9.93;3.60;;;11.20;99.90;;;;;;5071198;28;20451;-76
2023/03/24 02:08:41;;;;;;;7.55;3.40;;;11.20;99.90;;;;;;5071747;28;20446;-76
2023/03/24 02:11:08;;;;;;;8.73;3.60;;;11.20;99.90;;;;;;5077418;28;22515;-76
2023/03/24 02:13:35;;;;;;;11.27;4.07;;;11.20;99.90;;;;;;5070360;28;20464;-76
2023/03/24 02:16:28;;;;;;;10.93;4.10;;;11.30;99.90;;;;;;5072904;28;20409;-76
2023/03/24 02:19:38;;;;;;;8.48;3.50;;;11.30;99.90;;;;;;5071342;28;20483;-76
2023/03/24 02:22:50;;;;;;;10.68;3.60;;;11.30;99.90;;;;;;5074871;28;20451;-77
2023/03/24 02:25:43;;;;;;;8.88;3.95;;;11.30;99.90;;;;;;5055725;28;20472;-76
2023/03/24 02:28:36;;;;;;;7.97;3.20;;;11.30;99.90;;;;;;5070928;28;20506;-76
2023/03/24 02:31:15;;;;;;;9.05;3.42;;;11.30;99.90;;;;;;5069497;28;20561;-76
2023/03/24 02:34:08;;;;;;;9.77;3.58;;;11.30;99.90;;;;;;5052932;28;20412;-76
2023/03/24 02:37:38;;;;;;;8.63;3.38;;;11.30;99.90;;;;;;5068232;28;20447;-76
2023/03/24 02:40:26;;;;;;;7.57;3.28;;;11.20;99.90;;;;;;5071522;28;20542;-77
2023/03/24 02:43:27;;;;;;;11.02;3.80;;;11.20;99.90;;;;;;5065617;28;20503;-76
2023/03/24 02:46:24;;;;;;;10.20;3.50;;;11.30;99.90;;;;;;5069055;28;20415;-76
2023/03/24 02:49:15;;;;;;;8.07;3.53;;;11.30;99.90;;;;;;5072820;28;20417;-75
2023/03/24 02:52:04;;;;;;;7.18;3.20;;;11.20;99.90;;;;;;5073014;28;20441;-76
2023/03/24 02:54:56;;;;;;;14.63;3.60;;;11.20;99.90;;;;;;5072196;28;20914;-76
2023/03/24 02:58:08;;;;;;;11.77;3.33;;;11.20;99.90;;;;;;5071275;28;20414;-76
2023/03/24 03:00:40;;;;;;;8.05;3.47;;;11.10;99.90;;;;;;5031885;28;20405;-76
2023/03/24 03:03:22;;;;;;;10.65;3.78;;;11.10;99.90;;;;;;5031806;28;20500;-75
2023/03/24 03:06:05;;;;;;;7.10;3.70;;;11.10;99.90;;;;;;5048658;28;20784;-75
2023/03/24 03:08:35;;;;;;;10.98;3.72;;;11.10;99.90;;;;;;5067567;28;20552;-75
2023/03/24 03:11:05;;;;;;;9.88;3.65;;;11.20;99.90;;;;;;5096448;27;20410;-74
2023/03/24 03:13:39;;;;;;;8.95;3.63;;;11.20;99.90;;;;;;5065509;28;20956;-77
2023/03/24 03:16:21;;;;;;;7.57;3.90;;;11.20;99.90;;;;;;5067116;28;20416;-77
2023/03/24 03:19:02;;;;;;;8.40;3.53;;;11.20;99.90;;;;;;5072401;28;20406;-77
2023/03/24 03:21:40;;;;;;;9.60;3.58;;;11.30;99.90;;;;;;5053341;28;20439;-77
2023/03/24 03:24:25;;;;;;;10.50;3.50;;;11.30;99.90;;;;;;5070265;28;20424;-77
2023/03/24 03:26:59;;;;;;;9.93;3.45;;;11.30;99.90;;;;;;5068275;28;20504;-77
2023/03/24 03:29:36;;;;;;;9.63;3.53;;;11.10;99.90;;;;;;5053345;28;20594;-75
2023/03/24 03:32:08;;;;;;;9.85;3.42;;;11.00;99.90;;;;;;5067832;28;20457;-75
2023/03/24 03:34:59;;;;;;;10.10;3.50;;;11.10;99.90;;;;;;5099928;27;21039;-75
2023/03/24 03:38:03;;;;;;;9.13;3.40;;;11.00;99.90;;;;;;5064235;28;20415;-74
2023/03/24 03:40:45;;;;;;;7.07;3.08;;;10.90;99.90;;;;;;5096401;27;20410;-75
2023/03/24 03:43:11;;;;;;;12.20;3.35;;;11.00;99.90;;;;;;5064518;28;20419;-75
2023/03/24 03:45:38;;;;;;;8.25;3.45;;;11.00;99.90;;;;;;5067020;28;20419;-75
2023/03/24 03:48:05;;;;;;;8.15;3.40;;;11.00;99.90;;;;;;5064054;28;20764;-75
2023/03/24 03:50:33;;;;;;;9.68;3.47;;;11.00;99.90;;;;;;5069635;28;20446;-77
2023/03/24 03:53:00;;;;;;;7.47;3.45;;;10.90;99.90;;;;;;5051555;28;20757;-77
2023/03/24 03:55:27;;;;;;;9.98;3.40;;;10.80;99.90;;;;;;5080968;28;20449;-78
2023/03/24 03:57:54;;;;;;;8.15;3.13;;;10.70;99.90;;;;;;5071780;28;20801;-76
2023/03/24 04:00:21;;;;;;;10.30;3.35;;;10.80;99.90;;;;;;5068875;28;20398;-77
2023/03/24 04:03:39;;;;;;;9.57;3.60;;;10.80;99.90;;;;;;5072061;28;20446;-77
2023/03/24 04:06:52;;;;;;;13.37;3.60;;;10.80;99.90;;;;;;5067384;28;20522;-77
2023/03/24 04:09:46;;;;;;;10.10;3.40;;;10.80;99.90;;;;;;5087354;28;20518;-76
2023/03/24 04:12:32;;;;;;;10.02;3.75;;;10.80;99.90;;;;;;5088406;28;20509;-76
2023/03/24 04:15:20;;;;;;;9.68;3.95;;;10.80;99.90;;;;;;5068886;28;20412;-76
2023/03/24 04:18:05;;;;;;;10.15;3.70;;;10.80;99.90;;;;;;5089580;28;20410;-76
2023/03/24 04:21:14;;;;;;;8.68;3.70;;;10.80;99.90;;;;;;5070413;28;20409;-76
2023/03/24 04:23:58;;;;;;;10.95;3.80;;;10.90;99.90;;;;;;5067022;28;20507;-76
2023/03/24 04:26:59;;;;;;;10.60;4.00;;;11.00;99.90;;;;;;5053137;28;20413;-76
2023/03/24 04:29:51;;;;;;;9.43;3.30;;;11.00;99.90;;;;;;5069720;28;20514;-76
2023/03/24 04:33:04;;;;;;;8.75;3.30;;;11.00;99.90;;;;;;5075668;28;20737;-76
2023/03/24 04:35:39;;;;;;;9.13;3.83;;;11.00;99.90;;;;;;5072057;28;20419;-77
2023/03/24 04:38:16;;;;;;;12.05;3.75;;;11.00;99.90;;;;;;5065750;28;20493;-76
2023/03/24 04:40:48;;;;;;;10.63;3.90;;;11.00;99.90;;;;;;5049917;28;20571;-76
2023/03/24 04:43:19;;;;;;;8.85;3.88;;;11.10;99.90;;;;;;5071607;28;20518;-76
2023/03/24 04:45:48;;;;;;;12.52;4.07;;;11.10;99.90;;;;;;5065794;28;20416;-76
2023/03/24 04:48:18;;;;;;;9.80;3.83;;;11.10;99.90;;;;;;5057769;28;20487;-77
2023/03/24 04:51:00;;;;;;;8.48;3.42;;;11.10;99.90;;;;;;5068855;28;20409;-76
2023/03/24 04:53:26;;;;;;;9.02;3.72;;;11.10;99.90;;;;;;5071371;28;20772;-76
2023/03/24 04:56:17;;;;;;;9.70;3.85;;;11.20;99.90;;;;;;5068522;28;20472;-76
2023/03/24 04:58:44;;;;;;;8.25;3.50;;;11.30;99.90;;;;;;5084726;27;20442;-75
2023/03/24 05:01:10;;;;;;;10.25;3.95;;;11.30;99.90;;;;;;5074516;28;20408;-76
2023/03/24 05:03:36;;;;;;;10.45;3.63;;;11.40;99.90;;;;;;5084971;28;20397;-75
2023/03/24 05:06:07;;;;;;;8.32;3.25;;;11.50;99.90;;;;;;5072452;28;20409;-76
2023/03/24 05:08:33;;;;;;;9.48;3.60;;;11.50;99.90;;;;;;5068638;28;21149;-76
2023/03/24 05:10:59;;;;;;;8.88;3.50;;;11.60;99.90;;;;;;5071290;28;20414;-76
2023/03/24 05:13:25;;;;;;;6.63;3.60;;;11.70;99.90;;;;;;5054891;28;20820;-77
2023/03/24 05:15:53;;;;;;;8.57;3.70;;;11.70;99.90;;;;;;5102887;27;20403;-76
2023/03/24 05:18:19;;;;;;;8.82;3.78;;;11.80;99.90;;;;;;5070961;28;20515;-77
2023/03/24 05:20:46;;;;;;;7.05;3.33;;;11.80;99.90;;;;;;5072406;28;20415;-76
2023/03/24 05:23:12;;;;;;;7.43;3.33;;;11.90;99.90;;;;;;5078515;28;20436;-77
2023/03/24 05:25:38;;;;;;;7.57;3.60;;;11.90;99.90;;;;;;5074902;28;20403;-76
2023/03/24 05:28:05;;;;;;;8.18;3.28;;;12.10;99.90;;;;;;5099355;27;20455;-76
2023/03/24 05:30:31;;;;;;;8.27;3.95;;;12.20;99.90;;;;;;5051731;28;20492;-76
2023/03/24 05:32:58;;;;;;;8.35;3.85;;;12.30;99.90;;;;;;5073122;28;20909;-76
2023/03/24 05:35:24;;;;;;;10.07;3.92;;;12.40;99.90;;;;;;5070537;28;20892;-76
2023/03/24 05:37:50;;;;;;;10.00;4.07;;;12.40;99.90;;;;;;5069928;28;20930;-76
2023/03/24 05:40:17;;;;;;;9.00;4.40;;;12.50;99.90;;;;;;5099876;27;20395;-76
2023/03/24 05:42:43;;;;;;;8.87;4.20;;;12.50;99.90;;;;;;5073084;28;20480;-76
2023/03/24 05:45:10;;;;;;;10.85;4.25;;;12.60;99.90;;;;;;5070719;28;20472;-76
2023/03/24 05:47:37;;;;;;;10.00;4.00;;;12.60;99.90;;;;;;5069345;28;20419;-76
2023/03/24 05:50:04;;;;;;;10.50;4.07;;;12.60;99.90;;;;;;5071179;28;20426;-76
2023/03/24 05:52:31;;;;;;;13.82;4.03;;;12.70;99.90;;;;;;5066997;28;20420;-76
2023/03/24 05:54:58;;;;;;;10.88;4.28;;;12.70;99.90;;;;;;5073708;28;20414;-76
2023/03/24 05:57:24;;;;;;;11.20;4.30;;;12.80;99.90;;;;;;5075894;28;20490;-76
2023/03/24 05:59:52;;;;;;;10.77;3.95;;;12.80;99.90;;;;;;5072939;28;20409;-76
2023/03/24 06:02:20;;;;;;;9.48;4.13;;;12.90;99.90;;;;;;5077578;28;20444;-77
2023/03/24 06:04:47;;;;;;;10.75;3.63;;;13.00;99.90;;;;;;5070317;28;20425;-76
2023/03/24 06:07:15;;;;;;;8.18;3.80;;;13.20;99.90;;;;;;5067897;28;20519;-76
2023/03/24 06:09:45;;;;;;;8.75;3.60;;;13.30;99.90;;;;;;5068586;28;20415;-76
2023/03/24 06:12:13;;;;;;;9.15;3.58;;;13.60;99.90;;;;;;5073595;28;20416;-76
2023/03/24 06:14:40;;;;;;;8.65;3.20;;;13.80;99.90;;;;;;5084728;28;20411;-77
2023/03/24 06:17:07;;;;;;;8.65;3.60;;;13.90;99.90;;;;;;5069997;28;21301;-76
2023/03/24 06:19:37;;;;;;;13.30;3.73;;;13.90;99.90;;;;;;5072697;28;20425;-76
2023/03/24 06:22:05;;;;;;;9.93;4.00;;;14.00;99.90;;;;;;5068729;28;20830;-77
2023/03/24 06:24:31;;;;;;;13.38;3.88;;;13.90;99.90;;;;;;5106733;27;20513;-76
2023/03/24 06:27:01;;;;;;;11.75;3.90;;;13.90;99.90;;;;;;5070266;28;20518;-76
2023/03/24 06:29:29;;;;;;;8.75;3.60;;;13.80;99.90;;;;;;5073240;28;20993;-77
2023/03/24 06:31:56;;;;;;;8.85;3.88;;;13.80;99.90;;;;;;5070579;28;20417;-77
2023/03/24 06:34:23;;;;;;;11.10;3.47;;;13.80;99.90;;;;;;5072068;28;21124;-76
2023/03/24 06:36:50;;;;;;;7.93;3.92;;;13.80;99.90;;;;;;5074039;28;20477;-77
2023/03/24 06:39:17;;;;;;;11.48;3.88;;;14.00;99.90;;;;;;5075523;28;20415;-77
2023/03/24 06:41:44;;;;;;;8.40;3.47;;;14.00;99.90;;;;;;5069939;28;20761;-76
2023/03/24 06:44:10;;;;;;;9.90;3.80;;;14.00;99.90;;;;;;5075857;28;20418;-76
2023/03/24 06:46:37;;;;;;;9.77;4.00;;;14.10;99.90;;;;;;5088662;27;20426;-75
2023/03/24 06:49:05;;;;;;;9.93;3.75;;;14.10;99.90;;;;;;5068232;28;20436;-75
2023/03/24 06:51:31;;;;;;;11.50;4.35;;;14.20;99.90;;;;;;5070193;28;20426;-75
2023/03/24 06:53:58;;;;;;;10.65;3.80;;;14.20;99.90;;;;;;5072224;28;20402;-75
2023/03/24 06:56:25;;;;;;;8.73;3.70;;;14.30;99.90;;;;;;5066201;28;20505;-75
2023/03/24 06:58:52;;;;;;;11.73;3.72;;;14.30;99.90;;;;;;5068275;28;21003;-75
2023/03/24 07:01:19;;;;;;;11.43;3.55;;;14.30;99.90;;;;;;5067631;28;20410;-75
2023/03/24 07:03:45;;;;;;;11.85;3.67;;;14.40;99.90;;;;;;5073243;28;20431;-75
2023/03/24 07:06:11;;;;;;;12.48;4.05;;;14.50;99.90;;;;;;5048082;28;20407;-75
2023/03/24 07:08:37;;;;;;;13.05;3.70;;;14.60;99.90;;;;;;5096748;27;20456;-75
2023/03/24 07:11:05;;;;;;;11.30;3.85;;;14.60;99.90;;;;;;5060586;28;20773;-75
2023/03/24 07:13:32;;;;;;;11.00;3.95;;;14.70;99.90;;;;;;5071501;28;20479;-75
2023/03/24 07:15:58;;;;;;;9.02;3.45;;;14.70;99.90;;;;;;5073325;28;20447;-75
2023/03/24 07:18:24;;;;;;;11.80;3.58;;;14.70;99.90;;;;;;5069663;28;20409;-75
2023/03/24 07:20:51;;;;;;;10.23;3.88;;;14.80;99.90;;;;;;5082415;27;21106;-75
2023/03/24 07:23:17;;;;;;;10.05;3.78;;;14.80;99.90;;;;;;5067704;28;20495;-75
2023/03/24 07:25:44;;;;;;;10.48;3.47;;;14.90;99.90;;;;;;5049674;28;20407;-75
2023/03/24 07:28:10;;;;;;;13.27;4.07;;;14.90;99.90;;;;;;5071655;28;20430;-75
2023/03/24 07:30:37;;;;;;;15.13;3.70;;;15.00;99.90;;;;;;5079953;28;20440;-75
2023/03/24 07:33:06;;;;;;;14.57;3.88;;;15.00;99.90;;;;;;5067592;28;20507;-75
2023/03/24 07:35:32;;;;;;;7.60;3.35;;;15.10;99.90;;;;;;5072234;28;20413;-75
2023/03/24 07:38:00;;;;;;;12.57;3.72;;;15.10;99.90;;;;;;5070695;28;20505;-75
2023/03/24 07:40:29;;;;;;;11.00;3.60;;;15.10;99.90;;;;;;5052082;28;21043;-75
2023/03/24 07:42:59;;;;;;;11.23;3.43;;;15.20;99.90;;;;;;5069504;28;20506;-75
2023/03/24 07:45:27;;;;;;;8.18;3.45;;;15.30;99.90;;;;;;5068735;28;20462;-75
2023/03/24 07:47:55;;;;;;;9.03;3.30;;;15.30;99.90;;;;;;5070743;28;20419;-75
2023/03/24 07:50:22;;;;;;;14.40;4.15;;;15.40;99.90;;;;;;5055035;28;20421;-75
2023/03/24 07:52:49;;;;;;;12.48;4.10;;;15.40;99.90;;;;;;5073212;28;20415;-75
2023/03/24 07:55:16;;;;;;;12.50;3.42;;;15.50;99.90;;;;;;5071909;28;20541;-75
2023/03/24 07:57:46;;;;;;;10.32;3.92;;;15.60;99.90;;;;;;5069666;28;20448;-75
2023/03/24 08:00:16;;;;;;;12.15;4.03;;;15.60;99.90;;;;;;5067584;28;20939;-74
2023/03/24 08:02:46;;;;;;;10.48;3.88;;;15.60;99.90;;;;;;5099122;27;20573;-75
2023/03/24 08:05:14;;;;;;;8.60;3.95;;;15.70;99.90;;;;;;5055722;28;20410;-74
2023/03/24 08:07:49;;;;;;;9.68;3.80;;;15.80;99.90;;;;;;5066782;28;20964;-75
2023/03/24 08:10:15;;;;;;;10.93;3.88;;;15.70;99.90;;;;;;5065510;28;20512;-75
2023/03/24 08:12:42;;;;;;;10.07;3.92;;;15.70;99.90;;;;;;5068212;28;20423;-75
2023/03/24 08:15:09;;;;;;;7.60;3.73;;;16.00;99.90;;;;;;5067455;28;20486;-75
2023/03/24 08:17:36;;;;;;;11.18;3.83;;;16.00;99.90;;;;;;5093803;27;20573;-75
2023/03/24 08:20:07;;;;;;;10.05;3.65;;;15.90;99.90;;;;;;5094125;27;20502;-75
2023/03/24 08:22:33;;;;;;;11.25;3.63;;;15.70;99.90;;;;;;5062437;28;20484;-75
2023/03/24 08:24:59;;;;;;;10.75;3.83;;;15.70;99.90;;;;;;5074226;28;20424;-75
2023/03/24 08:27:25;;;;;;;11.70;3.90;;;15.70;99.90;;;;;;5067900;28;20493;-75
2023/03/24 08:29:52;;;;;;;11.40;3.75;;;16.00;99.90;;;;;;5067929;28;20405;-75
2023/03/24 08:32:18;;;;;;;11.00;3.50;;;16.20;99.90;;;;;;5067313;28;20407;-75
2023/03/24 08:34:44;;;;;;;15.37;3.67;;;16.30;99.90;;;;;;5060076;28;20408;-75
2023/03/24 08:37:11;;;;;;;13.23;3.10;;;16.50;99.90;;;;;;5073940;28;21252;-75
2023/03/24 08:39:37;;;;;;;10.65;3.58;;;16.20;99.90;;;;;;5076742;28;20412;-75
2023/03/24 08:42:03;;;;;;;10.73;3.22;;;16.30;99.90;;;;;;5070374;28;20558;-75
2023/03/24 08:44:30;;;;;;;10.88;3.33;;;16.40;99.90;;;;;;5072161;28;20437;-75
2023/03/24 08:46:56;;;;;;;11.00;3.50;;;16.20;99.90;;;;;;5061882;28;21169;-75
2023/03/24 08:49:22;;;;;;;8.80;3.15;;;15.80;99.90;;;;;;5069696;28;20405;-75
2023/03/24 08:51:49;;;;;;;10.50;3.17;;;15.80;99.90;;;;;;5076272;28;20416;-75
2023/03/24 08:54:15;;;;;;;10.95;3.10;;;15.70;99.90;;;;;;5078208;28;20400;-75
2023/03/24 08:56:42;;;;;;;15.05;3.83;;;15.80;99.90;;;;;;5079348;28;20406;-75
2023/03/24 08:59:08;;;;;;;11.07;3.15;;;15.80;99.90;;;;;;5054835;28;20829;-75
2023/03/24 09:01:34;;;;;;;16.13;4.50;;;15.70;99.90;;;;;;5084539;28;20434;-75
2023/03/24 09:04:02;;;;;;;12.77;3.90;;;16.10;99.90;;;;;;5072323;28;20415;-75
2023/03/24 09:06:29;;;;;;;12.93;4.28;;;16.00;99.90;;;;;;5076051;28;20405;-75
2023/03/24 09:08:55;;;;;;;27.67;14.48;;;16.00;99.90;;;;;;5075619;28;20464;-74
2023/03/24 09:11:22;;;;;;;16.15;5.10;;;16.60;99.90;;;;;;5083277;27;20428;-76
2023/03/24 09:13:48;;;;;;;13.15;4.80;;;17.00;99.90;;;;;;5075589;28;20676;-75
2023/03/24 09:16:16;;;;;;;15.23;5.80;;;17.20;99.90;;;;;;5098698;27;21067;-75
2023/03/24 09:18:44;;;;;;;13.40;4.23;;;17.20;99.90;;;;;;5068971;28;20518;-75
2023/03/24 09:21:11;;;;;;;12.07;3.95;;;17.20;99.90;;;;;;5070269;28;20413;-75
2023/03/24 09:23:37;;;;;;;12.18;3.53;;;17.20;99.90;;;;;;5073721;28;20448;-75
2023/03/24 09:26:06;;;;;;;13.60;3.37;;;17.30;99.90;;;;;;5082506;28;20466;-75
2023/03/24 09:28:33;;;;;;;11.32;3.72;;;17.10;99.90;;;;;;5077354;28;20763;-75
2023/03/24 09:31:04;;;;;;;10.68;3.70;;;17.40;99.90;;;;;;5073840;28;20418;-75
2023/03/24 09:33:33;;;;;;;14.73;4.00;;;17.60;99.90;;;;;;5075051;28;21090;-75
2023/03/24 09:36:03;;;;;;;12.05;3.90;;;17.60;99.90;;;;;;5060152;28;20400;-75
2023/03/24 09:38:29;;;;;;;10.10;3.47;;;17.90;99.90;;;;;;5054497;28;20407;-76
2023/03/24 09:41:01;;;;;;;17.40;3.70;;;17.90;99.90;;;;;;5069646;28;20418;-75
2023/03/24 09:43:45;;;;;;;10.88;3.70;;;18.00;99.90;;;;;;5055563;28;20411;-76
2023/03/24 09:46:35;;;;;;;12.07;3.40;;;18.10;99.90;;;;;;5070199;28;20415;-75
2023/03/24 09:49:03;;;;;;;11.95;3.38;;;18.20;99.90;;;;;;5103800;27;20408;-75
2023/03/24 09:51:43;;;;;;;11.65;3.22;;;18.20;99.90;;;;;;5073704;28;20446;-75
2023/03/24 09:54:30;;;;;;;8.70;2.70;;;18.10;99.90;;;;;;5055500;28;20596;-75
2023/03/24 09:56:57;;;;;;;12.70;3.30;;;17.80;99.90;;;;;;5072539;28;20968;-75
2023/03/24 09:59:40;;;;;;;9.48;3.25;;;18.00;99.90;;;;;;5074544;28;20415;-76
2023/03/24 10:02:17;;;;;;;12.27;3.55;;;18.20;99.90;;;;;;5072341;28;20418;-76
2023/03/24 10:04:45;;;;;;;11.65;3.22;;;18.40;99.90;;;;;;5074073;28;20414;-76
2023/03/24 10:07:36;;;;;;;14.73;3.28;;;18.70;99.90;;;;;;5076996;28;20489;-75
2023/03/24 10:10:32;;;;;;;11.27;3.33;;;18.70;99.90;;;;;;5074900;28;20414;-76
2023/03/24 10:13:10;;;;;;;9.60;3.03;;;19.00;99.90;;;;;;5095569;27;20410;-76
2023/03/24 10:15:53;;;;;;;12.93;3.58;;;18.80;99.90;;;;;;5073000;28;20406;-76
2023/03/24 10:19:03;;;;;;;14.73;3.63;;;18.50;99.90;;;;;;5066388;28;21314;-76
2023/03/24 10:21:37;;;;;;;11.82;3.50;;;17.90;99.90;;;;;;5046265;28;20420;-76
2023/03/24 10:24:31;;;;;;;10.80;3.53;;;17.90;99.90;;;;;;5068797;28;20601;-76
2023/03/24 10:27:16;;;;;;;11.88;3.45;;;17.90;99.90;;;;;;5080927;28;20501;-76
2023/03/24 10:29:45;;;;;;;12.13;3.63;;;17.90;99.90;;;;;;5078159;28;20466;-76
2023/03/24 10:32:20;;;;;;;13.68;3.45;;;18.30;99.90;;;;;;5083659;28;20900;-76
2023/03/24 10:34:59;;;;;;;10.55;3.22;;;18.50;99.90;;;;;;5087293;27;20709;-76
2023/03/24 10:37:30;;;;;;;9.73;3.70;;;18.60;99.90;;;;;;5096007;27;20733;-76
2023/03/24 10:40:11;;;;;;;14.27;3.78;;;18.40;99.90;;;;;;5078601;28;20412;-76
2023/03/24 10:42:37;;;;;;;17.30;3.60;;;18.20;99.90;;;;;;5070425;28;20408;-76
2023/03/24 10:45:04;;;;;;;41.07;5.20;;;18.10;99.90;;;;;;5074629;28;20414;-76
2023/03/24 10:47:32;;;;;;;16.07;3.37;;;18.00;99.90;;;;;;5069914;28;21327;-76
2023/03/24 10:50:07;;;;;;;13.15;3.40;;;17.90;99.90;;;;;;5076189;28;20515;-75
2023/03/24 10:52:44;;;;;;;11.05;3.53;;;17.90;99.90;;;;;;5072419;28;20583;-76
2023/03/24 10:55:17;;;;;;;13.13;3.25;;;17.90;99.90;;;;;;5071678;28;20419;-75
2023/03/24 10:57:48;;;;;;;10.20;3.13;;;17.90;99.90;;;;;;5065315;28;20410;-75
2023/03/24 11:00:28;;;;;;;27.58;4.75;;;17.90;99.90;;;;;;5069900;28;20540;-75
2023/03/24 11:03:07;;;;;;;12.68;3.63;;;17.90;99.90;;;;;;5068846;28;21169;-75
2023/03/24 11:05:39;;;;;;;12.13;3.60;;;17.90;99.90;;;;;;5070068;28;20472;-76
2023/03/24 11:08:36;;;;;;;12.98;3.60;;;17.80;99.90;;;;;;5104030;27;21179;-76
2023/03/24 11:11:23;;;;;;;32.78;4.80;;;17.80;99.90;;;;;;5068731;28;20445;-76
2023/03/24 11:14:03;;;;;;;51.72;5.55;;;17.50;99.90;;;;;;5067201;28;20409;-76
2023/03/24 11:16:42;;;;;;;11.93;3.85;;;17.40;99.90;;;;;;5071019;28;20575;-75
2023/03/24 11:19:22;;;;;;;12.95;3.45;;;17.30;99.90;;;;;;5071310;28;20413;-75
2023/03/24 11:21:56;;;;;;;14.65;3.53;;;17.20;99.90;;;;;;5073158;28;20970;-76
2023/03/24 11:24:23;;;;;;;14.20;3.20;;;17.20;99.90;;;;;;5069279;28;20437;-75
2023/03/24 11:26:58;;;;;;;18.40;3.30;;;16.80;99.90;;;;;;5070287;28;21411;-75
2023/03/24 11:40:28;;;;;;;13.02;4.07;;;16.40;99.90;;;;;;5071264;28;20489;-75
2023/03/24 11:43:02;;;;;;;11.68;4.20;;;16.70;99.90;;;;;;5095884;27;20407;-76
2023/03/24 11:45:39;;;;;;;35.17;5.15;;;16.90;99.90;;;;;;5073199;28;20429;-78
2023/03/24 11:48:39;;;;;;;16.98;3.78;;;16.80;99.90;;;;;;5069884;28;20420;-77
2023/03/24 11:51:11;;;;;;;13.63;3.92;;;16.60;99.90;;;;;;5078290;28;20410;-78
2023/03/24 11:53:44;;;;;;;11.60;3.70;;;16.30;99.90;;;;;;5055750;28;20407;-77
2023/03/24 11:56:52;;;;;;;12.63;3.80;;;16.20;99.90;;;;;;5061953;28;20401;-78
2023/03/24 11:59:45;;;;;;;14.18;3.78;;;16.40;99.90;;;;;;5091015;27;21211;-77
2023/03/24 12:02:49;;;;;;;9.43;3.63;;;16.60;99.90;;;;;;5072664;28;20422;-77
2023/03/24 12:05:42;;;;;;;11.20;3.30;;;16.80;99.90;;;;;;5101599;27;20417;-77
2023/03/24 12:08:43;;;;;;;15.20;4.25;;;16.60;99.90;;;;;;5073105;28;21294;-78
2023/03/24 12:11:54;;;;;;;14.35;4.15;;;16.70;99.90;;;;;;5062132;28;21048;-77
2023/03/24 12:15:12;;;;;;;10.35;4.20;;;16.70;99.90;;;;;;5067630;28;20419;-78
2023/03/24 12:18:14;;;;;;;15.67;4.83;;;16.60;99.90;;;;;;5075268;28;20419;-78
2023/03/24 12:21:06;;;;;;;12.98;4.13;;;16.60;99.90;;;;;;5074451;28;20466;-78
2023/03/24 12:23:52;;;;;;;10.73;4.75;;;16.40;99.90;;;;;;5072341;28;21702;-78
2023/03/24 12:26:28;;;;;;;10.65;4.70;;;16.40;99.90;;;;;;5064401;28;20505;-78
2023/03/24 12:29:22;;;;;;;12.75;4.88;;;16.40;99.90;;;;;;5070978;28;20408;-78
2023/03/24 12:32:45;;;;;;;13.15;5.13;;;16.40;99.90;;;;;;5099327;27;20429;-78
2023/03/24 12:35:37;;;;;;;14.53;4.93;;;15.90;99.90;;;;;;5054348;28;20402;-77
2023/03/24 12:38:41;;;;;;;13.20;4.65;;;15.70;99.90;;;;;;5072826;28;20414;-78
2023/03/24 12:41:44;;;;;;;8.70;4.32;;;15.70;99.90;;;;;;5076412;28;20437;-77
2023/03/24 12:44:36;;;;;;;15.00;4.85;;;15.70;99.90;;;;;;5070947;28;20445;-77
2023/03/24 12:47:40;;;;;;;13.38;4.45;;;15.60;99.90;;;;;;5101260;28;20469;-78
2023/03/24 12:50:37;;;;;;;10.93;4.75;;;15.60;99.90;;;;;;5067226;28;20419;-78
2023/03/24 12:53:35;;;;;;;11.90;4.22;;;15.60;99.90;;;;;;5077900;28;20947;-78
2023/03/24 12:56:21;;;;;;;10.85;4.55;;;15.60;99.90;;;;;;5075911;28;20441;-78
2023/03/24 12:58:59;;;;;;;10.85;4.20;;;15.70;99.90;;;;;;5074507;28;20421;-78
2023/03/24 13:01:42;;;;;;;8.60;3.80;;;15.60;99.90;;;;;;5097779;28;20407;-77
2023/03/24 13:04:28;;;;;;;10.32;4.05;;;15.60;99.90;;;;;;5074102;28;20424;-78
2023/03/24 13:07:10;;;;;;;13.17;4.53;;;15.60;99.90;;;;;;5079325;28;20756;-78
2023/03/24 13:10:05;;;;;;;12.75;4.53;;;15.80;99.90;;;;;;5070496;28;20428;-78
2023/03/24 13:13:00;;;;;;;13.32;5.60;;;15.70;99.90;;;;;;5074034;28;20430;-78
2023/03/24 13:15:47;;;;;;;16.35;5.57;;;16.00;99.90;;;;;;5067254;28;20418;-77
2023/03/24 13:18:42;;;;;;;14.15;5.50;;;15.90;99.90;;;;;;5071239;28;20421;-78
2023/03/24 13:21:11;;;;;;;11.15;5.40;;;15.70;99.90;;;;;;5078232;28;20522;-77
2023/03/24 13:23:57;;;;;;;13.45;5.32;;;15.60;99.90;;;;;;5071476;28;20438;-78
2023/03/24 13:27:05;;;;;;;13.82;5.45;;;15.60;99.90;;;;;;5078011;28;20423;-78
2023/03/24 13:29:41;;;;;;;13.20;5.40;;;15.60;99.90;;;;;;5072049;28;21105;-77
2023/03/24 13:32:19;;;;;;;13.68;5.80;;;15.60;99.90;;;;;;5082711;28;20410;-77
2023/03/24 13:35:08;;;;;;;23.63;5.67;;;15.80;99.90;;;;;;5078565;28;20418;-78